Data for 03/07/2008

Time Sea-Level Adjusted Pressure Absolute Pressure Temperature Relative Humidity Dew Point   
(mb) (inHg) (mb) (inHg) (C) (F) (%) (C) (F)
00:05 1023 30.21 852 25.16 -2.3 27.8 67 -7.6 18.4
00:10 1023 30.21 852 25.16 -2.4 27.6 68 -7.6 18.3
00:15 1023 30.21 852 25.16 -2.5 27.5 68 -7.6 18.3
00:20 1023 30.21 852 25.16 -2.5 27.6 68 -7.6 18.3
00:25 1023 30.21 852 25.16 -2.3 27.8 67 -7.5 18.4
00:30 1023 30.21 852 25.16 -2.4 27.7 67 -7.6 18.3
00:35 1023 30.21 852 25.16 -2.3 27.8 67 -7.6 18.3
00:40 1023 30.21 852 25.16 -2.2 28.1 66 -7.7 18.2
00:45 1023 30.21 852 25.16 -2.1 28.2 66 -7.6 18.2
00:50 1023 30.21 852 25.16 -2.1 28.2 66 -7.6 18.4
00:55 1023 30.21 852 25.16 -1.8 28.7 65 -7.6 18.3
01:00 1023 30.21 852 25.16 -1.5 29.3 64 -7.5 18.5
01:05 1023 30.21 852 25.16 -1.4 29.4 63 -7.6 18.4
01:10 1023 30.21 852 25.16 -1.6 29.1 64 -7.6 18.2
01:15 1023 30.21 852 25.16 -1.8 28.7 64 -7.8 18
01:20 1022 30.18 852 25.16 -1.9 28.6 64 -7.9 17.8
01:25 1022 30.18 852 25.16 -1.5 29.3 62 -7.8 17.9
01:30 1022 30.18 852 25.16 -1.6 29.2 62 -7.9 17.8
01:35 1023 30.21 852 25.16 -1.8 28.8 62 -8 17.6
01:40 1023 30.21 852 25.16 -1.9 28.7 63 -8 17.5
01:45 1023 30.21 852 25.16 -2.1 28.3 63 -8.2 17.3
01:50 1023 30.21 852 25.16 -2.1 28.2 63 -8.2 17.3
01:55 1023 30.21 852 25.16 -2.2 28.1 63 -8.2 17.2
02:00 1023 30.21 852 25.16 -2.2 28 64 -8.2 17.3
02:05 1023 30.21 852 25.16 -2.2 28.1 63 -8.2 17.2
02:10 1022 30.18 852 25.16 -2.1 28.2 63 -8.2 17.2
02:15 1022 30.18 852 25.16 -2 28.4 62 -8.4 17
02:20 1022 30.18 852 25.16 -2 28.5 62 -8.3 17
02:25 1022 30.18 852 25.16 -2.1 28.1 62 -8.4 16.9
02:30 1022 30.18 852 25.16 -2.5 27.5 64 -8.5 16.8
02:35 1022 30.18 852 25.16 -2.3 27.8 63 -8.5 16.6
02:40 1022 30.18 852 25.16 -2 28.4 61 -8.5 16.7
02:45 1022 30.18 851 25.13 -2 28.4 61 -8.6 16.6
02:50 1022 30.18 851 25.13 -2.1 28.3 61 -8.6 16.6
02:55 1022 30.18 851 25.13 -2.1 28.1 62 -8.6 16.6
03:00 1022 30.18 851 25.13 -2.2 28.1 61 -8.6 16.4
03:05 1022 30.18 851 25.13 -2.4 27.6 62 -8.8 16.2
03:10 1022 30.18 851 25.13 -2.7 27.1 63 -8.8 16.1
03:15 1022 30.18 851 25.13 -2.8 27 63 -8.8 16.1
03:20 1022 30.18 851 25.13 -2.8 27 63 -8.8 16.1
03:25 1022 30.18 851 25.13 -2.8 26.9 63 -8.9 16
03:30 1022 30.18 851 25.13 -3 26.6 64 -8.9 16
03:35 1022 30.18 851 25.13 -3.1 26.3 65 -8.9 16.1
03:40 1022 30.18 851 25.13 -3.3 26.1 66 -8.8 16.1
03:45 1022 30.18 851 25.13 -3.1 26.3 65 -8.7 16.3
03:50 1022 30.18 851 25.13 -3.2 26.2 66 -8.7 16.3
03:55 1022 30.18 851 25.13 -3.1 26.4 66 -8.6 16.5
04:00 1022 30.18 852 25.16 -3 26.6 66 -8.6 16.5
04:05 1022 30.18 852 25.16 -3 26.6 65 -8.6 16.5
04:10 1023 30.21 852 25.16 -3 26.6 66 -8.6 16.5
04:15 1023 30.21 852 25.16 -3 26.6 66 -8.6 16.6
04:20 1023 30.21 852 25.16 -3 26.7 66 -8.5 16.6
04:25 1023 30.21 852 25.16 -3 26.5 66 -8.6 16.5
04:30 1023 30.21 852 25.16 -3.2 26.3 66 -8.7 16.4
04:35 1023 30.21 852 25.16 -3.3 26.1 66 -8.7 16.3
04:40 1023 30.21 852 25.16 -3.3 26.1 65 -9 15.9
04:45 1023 30.21 852 25.16 -3.2 26.2 63 -9.4 15.1
04:50 1023 30.21 852 25.16 -3 26.5 62 -9.4 15.1
04:55 1023 30.21 852 25.16 -3.2 26.3 62 -9.4 15.1
05:00 1023 30.21 852 25.16 -3 26.6 62 -9.4 15.1
05:05 1023 30.21 852 25.16 -2.7 27.2 60 -9.4 15.1
05:10 1023 30.21 852 25.16 -3.3 26 62 -9.7 14.6
05:15 1023 30.21 852 25.16 -3.5 25.7 62 -9.7 14.5
05:20 1023 30.21 852 25.16 -4.1 24.7 65 -9.6 14.7
05:25 1023 30.21 852 25.16 -3.9 25 62 -10.1 13.9
05:30 1023 30.21 852 25.16 -3.5 25.8 62 -9.8 14.4
05:35 1023 30.21 852 25.16 -3.2 26.3 61 -9.6 14.8
05:40 1023 30.21 852 25.16 -3.6 25.5 64 -9.5 15
05:45 1023 30.21 852 25.16 -4.3 24.3 66 -9.7 14.5
05:50 1023 30.21 852 25.16 -4.7 23.6 67 -9.9 14.2
05:55 1023 30.21 852 25.16 -4.7 23.5 67 -9.9 14.1
06:00 1023 30.21 852 25.16 -4.3 24.2 66 -9.8 14.4
06:05 1022 30.18 852 25.16 -4.3 24.3 66 -9.8 14.4
06:10 1022 30.18 852 25.16 -4.4 24.1 66 -9.8 14.4
06:15 1022 30.18 851 25.13 -4.3 24.2 66 -9.7 14.6
06:20 1022 30.18 851 25.13 -4.1 24.6 66 -9.5 14.9
06:25 1022 30.18 851 25.13 -4.1 24.6 66 -9.5 14.9
06:30 1022 30.18 851 25.13 -4.1 24.6 66 -9.5 15
06:35 1022 30.18 851 25.13 -3.9 24.9 66 -9.4 15
06:40 1022 30.18 851 25.13 -4.3 24.3 67 -9.6 14.8
06:45 1022 30.18 851 25.13 -4.5 23.9 67 -9.7 14.5
06:50 1022 30.18 851 25.13 -4.4 24 67 -9.7 14.6
06:55 1022 30.18 851 25.13 -4.1 24.6 66 -9.6 14.8
07:00 1022 30.18 851 25.13 -3.8 25.2 65 -9.5 14.9
07:05 1022 30.18 851 25.13 -3.5 25.7 64 -9.5 15
07:10 1022 30.18 851 25.13 -3.6 25.6 63 -9.6 14.8
07:15 1022 30.18 851 25.13 -3.1 26.3 61 -9.6 14.8
07:20 1022 30.18 851 25.13 -2.8 26.9 59 -9.7 14.6
07:25 1022 30.18 851 25.13 -2.6 27.2 59 -9.6 14.6
07:30 1022 30.18 851 25.13 -2.7 27.2 58 -9.8 14.3
07:35 1022 30.18 851 25.13 -2.8 27 58 -10 14.1
07:40 1022 30.18 851 25.13 -3.1 26.4 58 -10.2 13.7
07:45 1022 30.18 851 25.13 -3 26.5 58 -10.2 13.7
07:50 1022 30.18 851 25.13 -2.8 27 57 -10.2 13.7
07:55 1022 30.18 851 25.13 -2.3 27.9 56 -10 14
08:00 1022 30.18 851 25.13 -1.8 28.8 54 -9.8 14.3
08:05 1022 30.18 851 25.13 -1.6 29 54 -9.8 14.3
08:10 1022 30.18 851 25.13 -1.5 29.4 52 -10 14
08:15 1022 30.18 851 25.13 -1.1 29.9 52 -9.7 14.5
08:20 1022 30.18 851 25.13 -1.3 29.7 53 -9.8 14.4
08:25 1022 30.18 851 25.13 -1.9 28.6 56 -9.6 14.6
08:30 1022 30.18 851 25.13 -1.2 29.9 54 -9.3 15.3
08:35 1021 30.15 851 25.13 -1 30.3 53 -9.3 15.3
08:40 1021 30.15 851 25.13 -0.8 30.5 52 -9.5 14.9
08:45 1021 30.15 851 25.13 -0.4 31.3 51 -9.3 15.3
08:50 1021 30.15 851 25.13 0.1 32.2 50 -9.1 15.6
08:55 1021 30.15 850 25.1 0.6 33 48 -9.3 15.2
09:00 1021 30.15 850 25.1 0.8 33.4 48 -9 15.8
09:05 1021 30.15 850 25.1 1.4 34.5 46 -9 15.8
09:10 1021 30.15 850 25.1 1.9 35.4 45 -8.9 16
09:15 1021 30.15 850 25.1 2.3 36.1 43 -9.2 15.5
09:20 1021 30.15 850 25.1 2.1 35.9 43 -9.1 15.7
09:25 1021 30.15 850 25.1 2.4 36.3 42 -9.2 15.5
09:30 1021 30.15 850 25.1 2.9 37.2 41 -9.1 15.5
09:35 1021 30.15 850 25.1 3.3 38 39 -9.2 15.4
09:40 1020 30.12 850 25.1 3.6 38.5 38 -9.6 14.7
09:45 1020 30.12 850 25.1 3.4 38.2 39 -9.3 15.3
09:50 1020 30.12 850 25.1 3.6 38.5 38 -9.3 15.2
09:55 1020 30.12 849 25.07 4.1 39.3 37 -9.4 15
10:00 1020 30.12 849 25.07 4.3 39.8 35 -9.8 14.3
10:05 1020 30.12 849 25.07 4.9 40.8 34 -9.6 14.7
10:10 1020 30.12 849 25.07 4.7 40.5 34 -9.8 14.3
10:15 1020 30.12 849 25.07 4.9 40.7 33 -10 14.1
10:20 1020 30.12 849 25.07 4.3 39.8 33 -10.7 12.7
10:25 1020 30.12 849 25.07 4.1 39.3 33 -10.9 12.5
10:30 1020 30.12 849 25.07 4 39.2 33 -10.8 12.6
10:35 1020 30.12 849 25.07 4.5 40.1 33 -10.4 13.4
10:40 1020 30.12 849 25.07 5.3 41.6 35 -8.8 16.1
10:45 1020 30.12 849 25.07 5.3 41.5 36 -8.8 16.2
10:50 1019 30.09 849 25.07 5.3 41.6 36 -8.7 16.3
10:55 1019 30.09 849 25.07 4.9 40.9 36 -8.8 16.1
11:00 1019 30.09 849 25.07 4.9 40.7 36 -9.1 15.6
11:05 1019 30.09 849 25.07 4.5 40 38 -8.7 16.3
11:10 1019 30.09 849 25.07 4.9 40.8 37 -8.6 16.6
11:15 1019 30.09 849 25.07 5.4 41.6 36 -8.7 16.4
11:20 1019 30.09 849 25.07 5.6 42.1 34 -9.2 15.5
11:25 1019 30.09 848 25.04 5.2 41.4 35 -9.1 15.7
11:30 1019 30.09 848 25.04 5.1 41.3 38 -8 17.6
11:35 1019 30.09 848 25.04 4.3 39.7 41 -8 17.7
11:40 1019 30.09 848 25.04 3.1 37.6 43 -8.3 17.1
11:45 1019 30.09 848 25.04 3 37.3 45 -7.9 17.7
11:50 1019 30.09 848 25.04 3.3 37.9 45 -7.5 18.4
11:55 1019 30.09 849 25.07 2.9 37.2 46 -7.6 18.4
12:00 1019 30.09 849 25.07 2.6 36.7 48 -7.4 18.7
12:05 1019 30.09 849 25.07 2.8 37 47 -7.4 18.6
12:10 1019 30.09 849 25.07 2.9 37.2 48 -7.1 19.3
12:15 1020 30.12 849 25.07 3.1 37.6 49 -6.7 19.9
12:20 1020 30.12 849 25.07 2.9 37.3 50 -6.4 20.5
12:25 1020 30.12 849 25.07 3.1 37.5 51 -6 21.1
12:30 1019 30.09 849 25.07 2.7 36.8 55 -5.5 22.2
12:35 1019 30.09 849 25.07 1.5 34.7 60 -5.4 22.2
12:40 1020 30.12 849 25.07 0.8 33.5 64 -5.3 22.5
12:45 1019 30.09 849 25.07 1 33.8 65 -4.9 23.2
12:50 1019 30.09 849 25.07 0.7 33.3 66 -5 23
12:55 1019 30.09 849 25.07 0.5 33 67 -4.9 23.1
13:00 1019 30.09 848 25.04 0.7 33.2 67 -4.8 23.4
13:05 1019 30.09 848 25.04 0.8 33.4 65 -5.1 22.8
13:10 1019 30.09 849 25.07 0.8 33.5 64 -5.2 22.7
13:15 1019 30.09 849 25.07 0.9 33.7 64 -5.2 22.7
13:20 1019 30.09 849 25.07 1.2 34.2 61 -5.4 22.3
13:25 1019 30.09 849 25.07 1.5 34.8 61 -5.2 22.7
13:30 1019 30.09 848 25.04 2 35.6 58 -5.4 22.3
13:35 1019 30.09 849 25.07 1.6 34.9 61 -5.1 22.9
13:40 1019 30.09 848 25.04 1.6 34.9 60 -5.4 22.2
13:45 1019 30.09 848 25.04 2.1 35.8 58 -5.2 22.7
13:50 1019 30.09 848 25.04 2.5 36.5 56 -5.3 22.4
13:55 1019 30.09 848 25.04 2.3 36.2 56 -5.6 21.9
14:00 1019 30.09 848 25.04 2.4 36.2 56 -5.5 22.2
14:05 1019 30.09 848 25.04 2.1 35.8 58 -5.3 22.5
14:10 1019 30.09 848 25.04 1.8 35.2 58 -5.7 21.7
14:15 1019 30.09 848 25.04 1.6 34.8 57 -6.1 21
14:20 1019 30.09 848 25.04 1.9 35.4 55 -6.2 20.9
14:25 1019 30.09 848 25.04 2.2 36 53 -6.4 20.5
14:30 1019 30.09 848 25.04 2.6 36.6 51 -6.5 20.3
14:35 1019 30.09 848 25.04 3 37.3 50 -6.5 20.4
14:40 1019 30.09 848 25.04 3.4 38.1 53 -5.2 22.7
14:45 1019 30.09 848 25.04 3.9 39 54 -4.5 23.9
14:50 1019 30.09 848 25.04 4 39.1 55 -4.3 24.3
14:55 1019 30.09 848 25.04 4.1 39.5 54 -4.4 24
15:00 1019 30.09 848 25.04 4.1 39.4 53 -4.5 23.9
15:05 1018 30.06 848 25.04 3.9 38.9 58 -3.6 25.5
15:10 1018 30.06 848 25.04 3.3 38 62 -3.2 26.2
15:15 1018 30.06 847 25.01 3.1 37.5 64 -3.2 26.3
15:20 1018 30.06 847 25.01 3 37.3 65 -3 26.6
15:25 1018 30.06 847 25.01 2.9 37.2 65 -2.9 26.7
15:30 1018 30.06 847 25.01 2.9 37.2 66 -2.9 26.8
15:35 1018 30.06 847 25.01 3.1 37.6 65 -2.8 27
15:40 1018 30.06 847 25.01 3.3 38 65 -2.7 27.2
15:45 1018 30.06 847 25.01 3.6 38.5 62 -3 26.7
15:50 1018 30.06 847 25.01 3.7 38.7 60 -3.3 26.1
15:55 1018 30.06 847 25.01 3.9 39 57 -3.8 25.2
16:00 1017 30.03 847 25.01 4.1 39.4 56 -4 24.9
16:05 1017 30.03 847 25.01 4.2 39.6 54 -4.2 24.5
16:10 1017 30.03 847 25.01 4.5 40.1 53 -4.4 24.1
16:15 1017 30.03 847 25.01 4.5 40 52 -4.5 23.9
16:20 1017 30.03 846 24.98 4.6 40.2 50 -5 22.9
16:25 1017 30.03 846 24.98 4.8 40.7 49 -5 23
16:30 1017 30.03 846 24.98 4.7 40.5 50 -4.9 23.2
16:35 1017 30.03 846 24.98 4.7 40.5 51 -4.7 23.6
16:40 1017 30.03 846 24.98 4.7 40.5 50 -4.7 23.5
16:45 1017 30.03 846 24.98 4.7 40.4 50 -5 23.1
16:50 1017 30.03 846 24.98 4.7 40.4 50 -4.7 23.5
16:55 1017 30.03 846 24.98 4.6 40.2 51 -4.6 23.7
17:00 1017 30.03 846 24.98 4.5 40.1 51 -4.6 23.7
17:05 1017 30.03 846 24.98 4.5 40.1 51 -4.7 23.5
17:10 1017 30.03 846 24.98 4.5 40 52 -4.6 23.7
17:15 1017 30.03 846 24.98 4.4 39.9 52 -4.6 23.7
17:20 1017 30.03 846 24.98 4.4 39.8 53 -4.5 23.9
17:25 1017 30.03 846 24.98 4.4 39.9 51 -4.8 23.4
17:30 1017 30.03 846 24.98 4.6 40.3 49 -5.2 22.6
17:35 1017 30.03 846 24.98 4.7 40.5 49 -5.1 22.7
17:40 1017 30.03 846 24.98 4.8 40.6 48 -5.3 22.4
17:45 1017 30.03 846 24.98 4.7 40.5 48 -5.3 22.5
17:50 1017 30.03 847 25.01 4.7 40.5 48 -5.3 22.5
17:55 1017 30.03 847 25.01 4.8 40.6 48 -5.4 22.3
18:00 1017 30.03 847 25.01 4.8 40.6 48 -5.2 22.6
18:05 1017 30.03 847 25.01 4.7 40.4 49 -5.1 22.8
18:10 1017 30.03 847 25.01 4.5 40.1 50 -5.1 22.8
18:15 1017 30.03 847 25.01 4.6 40.4 48 -5.4 22.3
18:20 1017 30.03 847 25.01 4.8 40.6 50 -4.9 23.2
18:25 1018 30.06 847 25.01 4.6 40.2 50 -4.8 23.3
18:30 1018 30.06 847 25.01 4.4 40 52 -4.6 23.8
18:35 1018 30.06 847 25.01 4.3 39.7 53 -4.4 24
18:40 1018 30.06 847 25.01 4.1 39.3 54 -4.4 24.1
18:45 1018 30.06 847 25.01 4 39.3 55 -4.1 24.6
18:50 1018 30.06 847 25.01 4 39.3 53 -4.6 23.8
18:55 1018 30.06 847 25.01 4.2 39.6 52 -4.8 23.4
19:00 1018 30.06 847 25.01 4.3 39.7 52 -4.6 23.7
19:05 1018 30.06 847 25.01 4.2 39.6 53 -4.5 23.9
19:10 1018 30.06 847 25.01 4.3 39.7 53 -4.6 23.7
19:15 1018 30.06 847 25.01 4.3 39.8 53 -4.5 24
19:20 1018 30.06 847 25.01 4.2 39.6 53 -4.4 24.1
19:25 1018 30.06 847 25.01 4.1 39.3 54 -4.4 24
19:30 1018 30.06 847 25.01 4 39.1 55 -4.3 24.2
19:35 1018 30.06 847 25.01 3.9 39.1 55 -4.2 24.4
19:40 1018 30.06 847 25.01 3.9 38.9 56 -4.2 24.4
19:45 1018 30.06 847 25.01 3.8 38.9 55 -4.4 24
19:50 1018 30.06 847 25.01 3.9 39 55 -4.4 24.1
19:55 1018 30.06 847 25.01 3.9 39 55 -4.3 24.3
20:00 1018 30.06 847 25.01 3.8 38.8 56 -4.2 24.5
20:05 1018 30.06 847 25.01 3.6 38.5 57 -4.1 24.6
20:10 1018 30.06 847 25.01 3.4 38.1 58 -4.1 24.7
20:15 1018 30.06 847 25.01 3.3 38 59 -4 24.8
20:20 1018 30.06 847 25.01 3.3 37.9 59 -3.9 25
20:25 1018 30.06 847 25.01 3.3 37.9 59 -4.1 24.7
20:30 1018 30.06 847 25.01 3.3 37.9 58 -4.1 24.6
20:35 1018 30.06 847 25.01 3.2 37.7 58 -4.4 24.1
20:40 1018 30.06 847 25.01 3.2 37.8 57 -4.5 23.9
20:45 1018 30.06 847 25.01 3.3 37.9 56 -4.7 23.6
20:50 1018 30.06 847 25.01 3.3 37.9 56 -4.7 23.6
20:55 1018 30.06 847 25.01 3.3 37.9 56 -4.7 23.5
21:00 1018 30.06 847 25.01 3.2 37.7 56 -4.8 23.4
21:05 1018 30.06 847 25.01 3.1 37.5 56 -4.9 23.2
21:10 1018 30.06 847 25.01 3.1 37.5 56 -4.9 23.1
21:15 1018 30.06 847 25.01 3 37.5 56 -4.9 23.2
21:20 1018 30.06 847 25.01 3 37.3 56 -4.9 23.1
21:25 1018 30.06 847 25.01 2.9 37.1 57 -4.8 23.3
21:30 1018 30.06 847 25.01 2.8 37 57 -4.8 23.3
21:35 1018 30.06 847 25.01 2.7 36.8 58 -4.8 23.3
21:40 1018 30.06 847 25.01 2.5 36.5 59 -4.8 23.4
21:45 1018 30.06 847 25.01 2.3 36.2 59 -4.8 23.4
21:50 1018 30.06 847 25.01 2.2 35.9 60 -4.8 23.3
21:55 1018 30.06 847 25.01 2 35.7 60 -4.8 23.3
22:00 1018 30.06 847 25.01 1.9 35.5 60 -4.9 23.1
22:05 1018 30.06 847 25.01 1.8 35.2 61 -5.1 22.9
22:10 1018 30.06 847 25.01 1.6 34.9 61 -5.2 22.7
22:15 1018 30.06 847 25.01 1.6 34.9 61 -5.2 22.6
22:20 1018 30.06 847 25.01 1.6 34.9 60 -5.3 22.5
22:25 1018 30.06 847 25.01 1.5 34.6 61 -5.4 22.4
22:30 1018 30.06 847 25.01 1.5 34.6 60 -5.4 22.3
22:35 1018 30.06 847 25.01 1.5 34.7 60 -5.5 22
22:40 1018 30.06 847 25.01 1.6 34.8 59 -5.6 22
22:45 1018 30.06 847 25.01 1.5 34.7 59 -5.6 21.8
22:50 1018 30.06 847 25.01 1.5 34.6 59 -5.7 21.8
22:55 1018 30.06 847 25.01 0.6 33.1 63 -5.7 21.8
23:00 1018 30.06 847 25.01 0.1 32.2 64 -5.9 21.4
23:05 1018 30.06 847 25.01 -0.1 31.9 65 -5.8 21.5
23:10 1018 30.06 847 25.01 0.1 32.1 64 -5.9 21.3
23:15 1018 30.06 847 25.01 0.2 32.4 63 -5.9 21.3
23:20 1018 30.06 847 25.01 0.4 32.7 63 -5.9 21.3
23:25 1018 30.06 847 25.01 0.3 32.5 63 -6 21.2
23:30 1018 30.06 847 25.01 0.3 32.5 62 -6.1 21.1
23:35 1018 30.06 847 25.01 0.4 32.7 62 -6 21.2
23:40 1018 30.06 847 25.01 0.4 32.7 62 -6.1 21.1
23:45 1018 30.06 847 25.01 0.4 32.6 62 -6.1 21
23:50 1018 30.06 847 25.01 0.7 33.2 61 -6.1 21
23:55 1018 30.06 847 25.01 0.9 33.6 60 -6.1 21.1
24:00 1018 30.06 847 25.01 0.9 33.6 60 -6.1 21.1